sensor_id;sensor_type;location;lat;lon;timestamp;P1;durP1;ratioP1;P2;durP2;ratioP2
12760;SDS011;6444;49.742;6.114;2022-10-16T00:00:07;15.15;;;10.63;;
12760;SDS011;6444;49.742;6.114;2022-10-16T00:02:34;13.73;;;10.95;;
12760;SDS011;6444;49.742;6.114;2022-10-16T00:05:01;13.65;;;10.55;;
12760;SDS011;6444;49.742;6.114;2022-10-16T00:07:27;17.08;;;10.85;;
12760;SDS011;6444;49.742;6.114;2022-10-16T00:09:54;13.65;;;10.05;;
12760;SDS011;6444;49.742;6.114;2022-10-16T00:12:21;16.85;;;10.45;;
12760;SDS011;6444;49.742;6.114;2022-10-16T00:14:47;13.38;;;11.98;;
12760;SDS011;6444;49.742;6.114;2022-10-16T00:17:14;12.20;;;9.63;;
12760;SDS011;6444;49.742;6.114;2022-10-16T00:19:41;14.60;;;9.75;;
12760;SDS011;6444;49.742;6.114;2022-10-16T00:22:07;13.10;;;9.98;;
12760;SDS011;6444;49.742;6.114;2022-10-16T00:24:34;13.70;;;10.43;;
12760;SDS011;6444;49.742;6.114;2022-10-16T00:27:00;10.20;;;8.85;;
12760;SDS011;6444;49.742;6.114;2022-10-16T00:29:27;14.32;;;9.55;;
12760;SDS011;6444;49.742;6.114;2022-10-16T00:31:54;12.07;;;9.23;;
12760;SDS011;6444;49.742;6.114;2022-10-16T00:34:21;11.48;;;9.00;;
12760;SDS011;6444;49.742;6.114;2022-10-16T00:36:48;14.00;;;8.98;;
12760;SDS011;6444;49.742;6.114;2022-10-16T00:39:14;12.20;;;9.60;;
12760;SDS011;6444;49.742;6.114;2022-10-16T00:41:41;14.52;;;8.65;;
12760;SDS011;6444;49.742;6.114;2022-10-16T00:47:13;9.35;;;8.23;;
12760;SDS011;6444;49.742;6.114;2022-10-16T00:49:35;11.15;;;7.60;;
12760;SDS011;6444;49.742;6.114;2022-10-16T00:52:02;14.80;;;10.35;;
12760;SDS011;6444;49.742;6.114;2022-10-16T00:54:29;14.90;;;9.40;;
12760;SDS011;6444;49.742;6.114;2022-10-16T00:56:55;10.07;;;8.15;;
12760;SDS011;6444;49.742;6.114;2022-10-16T00:59:37;9.60;;;8.40;;
12760;SDS011;6444;49.742;6.114;2022-10-16T01:02:00;13.20;;;8.80;;
12760;SDS011;6444;49.742;6.114;2022-10-16T01:04:27;10.00;;;8.60;;
12760;SDS011;6444;49.742;6.114;2022-10-16T01:12:13;12.90;;;9.05;;
12760;SDS011;6444;49.742;6.114;2022-10-16T01:15:01;13.55;;;12.10;;
12760;SDS011;6444;49.742;6.114;2022-10-16T01:17:34;12.30;;;10.10;;
12760;SDS011;6444;49.742;6.114;2022-10-16T01:22:50;13.18;;;11.77;;
12760;SDS011;6444;49.742;6.114;2022-10-16T01:26:19;9.25;;;8.18;;
12760;SDS011;6444;49.742;6.114;2022-10-16T01:28:13;10.02;;;8.38;;
12760;SDS011;6444;49.742;6.114;2022-10-16T01:30:40;10.27;;;7.90;;
12760;SDS011;6444;49.742;6.114;2022-10-16T01:33:08;11.57;;;8.23;;
12760;SDS011;6444;49.742;6.114;2022-10-16T01:35:43;11.50;;;10.27;;
12760;SDS011;6444;49.742;6.114;2022-10-16T01:38:16;10.85;;;8.50;;
12760;SDS011;6444;49.742;6.114;2022-10-16T01:40:41;14.05;;;8.80;;
12760;SDS011;6444;49.742;6.114;2022-10-16T01:43:08;12.32;;;8.10;;
12760;SDS011;6444;49.742;6.114;2022-10-16T01:45:34;11.25;;;8.60;;
12760;SDS011;6444;49.742;6.114;2022-10-16T01:48:02;9.70;;;8.15;;
12760;SDS011;6444;49.742;6.114;2022-10-16T01:50:28;10.68;;;8.90;;
12760;SDS011;6444;49.742;6.114;2022-10-16T01:52:55;10.27;;;6.80;;
12760;SDS011;6444;49.742;6.114;2022-10-16T01:55:27;7.40;;;6.18;;
12760;SDS011;6444;49.742;6.114;2022-10-16T01:57:51;8.00;;;6.12;;
12760;SDS011;6444;49.742;6.114;2022-10-16T02:00:18;9.35;;;6.75;;
12760;SDS011;6444;49.742;6.114;2022-10-16T02:02:45;10.90;;;7.53;;
12760;SDS011;6444;49.742;6.114;2022-10-16T02:05:25;7.22;;;6.30;;
12760;SDS011;6444;49.742;6.114;2022-10-16T02:08:09;8.40;;;6.40;;
12760;SDS011;6444;49.742;6.114;2022-10-16T02:10:35;9.02;;;5.85;;
12760;SDS011;6444;49.742;6.114;2022-10-16T02:15:28;4.65;;;4.25;;
12760;SDS011;6444;49.742;6.114;2022-10-16T02:17:56;6.22;;;4.95;;
12760;SDS011;6444;49.742;6.114;2022-10-16T02:20:24;7.62;;;5.03;;
12760;SDS011;6444;49.742;6.114;2022-10-16T02:22:49;8.90;;;5.32;;
12760;SDS011;6444;49.742;6.114;2022-10-16T02:25:23;7.30;;;5.12;;
12760;SDS011;6444;49.742;6.114;2022-10-16T02:28:01;10.82;;;5.18;;
12760;SDS011;6444;49.742;6.114;2022-10-16T02:33:00;7.37;;;5.50;;
12760;SDS011;6444;49.742;6.114;2022-10-16T02:35:26;6.20;;;4.95;;
12760;SDS011;6444;49.742;6.114;2022-10-16T02:37:53;6.80;;;5.37;;
12760;SDS011;6444;49.742;6.114;2022-10-16T02:40:19;10.07;;;5.50;;
12760;SDS011;6444;49.742;6.114;2022-10-16T02:42:49;5.87;;;4.40;;
12760;SDS011;6444;49.742;6.114;2022-10-16T02:45:13;6.30;;;3.28;;
12760;SDS011;6444;49.742;6.114;2022-10-16T02:47:40;3.67;;;3.17;;
12760;SDS011;6444;49.742;6.114;2022-10-16T02:50:07;5.18;;;3.47;;
12760;SDS011;6444;49.742;6.114;2022-10-16T02:52:34;5.10;;;4.12;;
12760;SDS011;6444;49.742;6.114;2022-10-16T02:55:01;7.47;;;4.68;;
12760;SDS011;6444;49.742;6.114;2022-10-16T02:57:27;5.20;;;4.12;;
12760;SDS011;6444;49.742;6.114;2022-10-16T02:59:54;12.07;;;4.50;;
12760;SDS011;6444;49.742;6.114;2022-10-16T03:02:21;4.60;;;4.00;;
12760;SDS011;6444;49.742;6.114;2022-10-16T03:04:48;5.20;;;3.40;;
12760;SDS011;6444;49.742;6.114;2022-10-16T03:07:14;3.33;;;2.92;;
12760;SDS011;6444;49.742;6.114;2022-10-16T03:09:41;5.95;;;2.97;;
12760;SDS011;6444;49.742;6.114;2022-10-16T03:12:08;3.60;;;2.67;;
12760;SDS011;6444;49.742;6.114;2022-10-16T03:14:35;7.12;;;2.80;;
12760;SDS011;6444;49.742;6.114;2022-10-16T03:17:02;4.57;;;2.50;;
12760;SDS011;6444;49.742;6.114;2022-10-16T03:19:28;4.07;;;2.97;;
12760;SDS011;6444;49.742;6.114;2022-10-16T03:21:55;5.40;;;3.05;;
12760;SDS011;6444;49.742;6.114;2022-10-16T03:24:22;4.75;;;3.08;;
12760;SDS011;6444;49.742;6.114;2022-10-16T03:26:48;4.37;;;2.87;;
12760;SDS011;6444;49.742;6.114;2022-10-16T03:29:15;3.78;;;2.78;;
12760;SDS011;6444;49.742;6.114;2022-10-16T03:31:41;5.75;;;3.08;;
12760;SDS011;6444;49.742;6.114;2022-10-16T03:34:08;11.85;;;3.80;;
12760;SDS011;6444;49.742;6.114;2022-10-16T03:36:35;4.03;;;3.00;;
12760;SDS011;6444;49.742;6.114;2022-10-16T03:39:01;4.85;;;2.70;;
12760;SDS011;6444;49.742;6.114;2022-10-16T03:41:28;4.10;;;2.50;;
12760;SDS011;6444;49.742;6.114;2022-10-16T03:43:55;4.18;;;2.62;;
12760;SDS011;6444;49.742;6.114;2022-10-16T03:46:21;3.72;;;2.50;;
12760;SDS011;6444;49.742;6.114;2022-10-16T03:48:48;4.07;;;2.60;;
12760;SDS011;6444;49.742;6.114;2022-10-16T03:51:15;4.65;;;2.58;;
12760;SDS011;6444;49.742;6.114;2022-10-16T03:53:41;6.03;;;3.12;;
12760;SDS011;6444;49.742;6.114;2022-10-16T03:56:08;7.45;;;2.72;;
12760;SDS011;6444;49.742;6.114;2022-10-16T03:58:34;4.28;;;3.05;;
12760;SDS011;6444;49.742;6.114;2022-10-16T04:01:01;4.87;;;3.45;;
12760;SDS011;6444;49.742;6.114;2022-10-16T04:03:28;4.03;;;3.03;;
12760;SDS011;6444;49.742;6.114;2022-10-16T04:05:54;4.93;;;2.30;;
12760;SDS011;6444;49.742;6.114;2022-10-16T04:08:21;4.87;;;2.85;;
12760;SDS011;6444;49.742;6.114;2022-10-16T04:10:48;6.35;;;2.50;;
12760;SDS011;6444;49.742;6.114;2022-10-16T04:13:14;2.85;;;2.30;;
12760;SDS011;6444;49.742;6.114;2022-10-16T04:15:42;7.40;;;2.40;;
12760;SDS011;6444;49.742;6.114;2022-10-16T04:18:08;3.85;;;2.10;;
12760;SDS011;6444;49.742;6.114;2022-10-16T04:20:35;2.62;;;2.25;;
12760;SDS011;6444;49.742;6.114;2022-10-16T04:23:01;3.55;;;2.20;;
12760;SDS011;6444;49.742;6.114;2022-10-16T04:25:28;2.95;;;1.90;;
12760;SDS011;6444;49.742;6.114;2022-10-16T04:27:55;1.87;;;1.62;;
12760;SDS011;6444;49.742;6.114;2022-10-16T04:30:22;2.92;;;1.83;;
12760;SDS011;6444;49.742;6.114;2022-10-16T04:32:49;2.40;;;1.80;;
12760;SDS011;6444;49.742;6.114;2022-10-16T04:35:16;2.95;;;1.90;;
12760;SDS011;6444;49.742;6.114;2022-10-16T04:37:42;2.87;;;2.12;;
12760;SDS011;6444;49.742;6.114;2022-10-16T04:40:09;4.18;;;2.45;;
12760;SDS011;6444;49.742;6.114;2022-10-16T04:42:35;2.75;;;2.00;;
12760;SDS011;6444;49.742;6.114;2022-10-16T04:45:02;3.65;;;2.22;;
12760;SDS011;6444;49.742;6.114;2022-10-16T04:47:28;2.72;;;2.22;;
12760;SDS011;6444;49.742;6.114;2022-10-16T04:49:55;3.08;;;2.10;;
12760;SDS011;6444;49.742;6.114;2022-10-16T04:52:22;2.83;;;2.30;;
12760;SDS011;6444;49.742;6.114;2022-10-16T04:54:48;4.47;;;2.55;;
12760;SDS011;6444;49.742;6.114;2022-10-16T04:57:15;2.60;;;2.30;;
12760;SDS011;6444;49.742;6.114;2022-10-16T04:59:42;3.28;;;2.20;;
12760;SDS011;6444;49.742;6.114;2022-10-16T05:02:08;2.85;;;2.10;;
12760;SDS011;6444;49.742;6.114;2022-10-16T05:04:36;6.00;;;2.78;;
12760;SDS011;6444;49.742;6.114;2022-10-16T05:07:02;4.80;;;2.90;;
12760;SDS011;6444;49.742;6.114;2022-10-16T05:09:29;7.50;;;3.60;;
12760;SDS011;6444;49.742;6.114;2022-10-16T05:11:55;4.90;;;3.55;;
12760;SDS011;6444;49.742;6.114;2022-10-16T05:14:22;4.65;;;3.60;;
12760;SDS011;6444;49.742;6.114;2022-10-16T05:16:49;5.70;;;3.22;;
12760;SDS011;6444;49.742;6.114;2022-10-16T05:19:15;5.97;;;3.70;;
12760;SDS011;6444;49.742;6.114;2022-10-16T05:21:42;6.05;;;3.80;;
12760;SDS011;6444;49.742;6.114;2022-10-16T05:24:09;7.68;;;4.53;;
12760;SDS011;6444;49.742;6.114;2022-10-16T05:26:35;5.50;;;3.60;;
12760;SDS011;6444;49.742;6.114;2022-10-16T05:29:02;6.80;;;4.30;;
12760;SDS011;6444;49.742;6.114;2022-10-16T05:31:28;6.85;;;4.32;;
12760;SDS011;6444;49.742;6.114;2022-10-16T05:33:59;7.07;;;4.30;;
12760;SDS011;6444;49.742;6.114;2022-10-16T05:36:25;3.97;;;3.55;;
12760;SDS011;6444;49.742;6.114;2022-10-16T05:38:51;3.65;;;3.25;;
12760;SDS011;6444;49.742;6.114;2022-10-16T05:41:18;5.82;;;3.10;;
12760;SDS011;6444;49.742;6.114;2022-10-16T05:43:47;3.03;;;2.83;;
12760;SDS011;6444;49.742;6.114;2022-10-16T05:46:14;4.62;;;2.90;;
12760;SDS011;6444;49.742;6.114;2022-10-16T05:48:41;5.65;;;2.58;;
12760;SDS011;6444;49.742;6.114;2022-10-16T05:51:09;5.03;;;2.60;;
12760;SDS011;6444;49.742;6.114;2022-10-16T05:53:34;4.25;;;3.10;;
12760;SDS011;6444;49.742;6.114;2022-10-16T05:56:00;5.03;;;3.92;;
12760;SDS011;6444;49.742;6.114;2022-10-16T05:58:31;5.00;;;3.10;;
12760;SDS011;6444;49.742;6.114;2022-10-16T06:00:58;3.62;;;2.42;;
12760;SDS011;6444;49.742;6.114;2022-10-16T06:03:23;5.78;;;2.80;;
12760;SDS011;6444;49.742;6.114;2022-10-16T06:05:50;5.28;;;3.42;;
12760;SDS011;6444;49.742;6.114;2022-10-16T06:08:17;4.75;;;2.97;;
12760;SDS011;6444;49.742;6.114;2022-10-16T06:10:43;7.03;;;4.47;;
12760;SDS011;6444;49.742;6.114;2022-10-16T06:13:10;7.40;;;5.12;;
12760;SDS011;6444;49.742;6.114;2022-10-16T06:15:37;6.20;;;5.00;;
12760;SDS011;6444;49.742;6.114;2022-10-16T06:18:03;7.32;;;4.85;;
12760;SDS011;6444;49.742;6.114;2022-10-16T06:20:30;6.85;;;5.78;;
12760;SDS011;6444;49.742;6.114;2022-10-16T06:22:57;5.47;;;4.70;;
12760;SDS011;6444;49.742;6.114;2022-10-16T06:25:24;6.05;;;5.00;;
12760;SDS011;6444;49.742;6.114;2022-10-16T06:27:50;7.50;;;5.12;;
12760;SDS011;6444;49.742;6.114;2022-10-16T06:30:17;6.55;;;4.90;;
12760;SDS011;6444;49.742;6.114;2022-10-16T06:32:44;6.07;;;4.70;;
12760;SDS011;6444;49.742;6.114;2022-10-16T06:35:10;7.22;;;4.50;;
12760;SDS011;6444;49.742;6.114;2022-10-16T06:37:37;6.05;;;4.47;;
12760;SDS011;6444;49.742;6.114;2022-10-16T06:40:04;6.55;;;5.25;;
12760;SDS011;6444;49.742;6.114;2022-10-16T06:42:30;8.30;;;5.47;;
12760;SDS011;6444;49.742;6.114;2022-10-16T06:44:57;8.25;;;5.68;;
12760;SDS011;6444;49.742;6.114;2022-10-16T06:47:24;5.93;;;4.70;;
12760;SDS011;6444;49.742;6.114;2022-10-16T06:49:50;6.45;;;5.20;;
12760;SDS011;6444;49.742;6.114;2022-10-16T06:52:18;9.70;;;4.60;;
12760;SDS011;6444;49.742;6.114;2022-10-16T06:54:44;4.60;;;4.05;;
12760;SDS011;6444;49.742;6.114;2022-10-16T06:57:11;9.02;;;3.90;;
12760;SDS011;6444;49.742;6.114;2022-10-16T06:59:37;3.90;;;3.40;;
12760;SDS011;6444;49.742;6.114;2022-10-16T07:02:04;4.82;;;3.62;;
12760;SDS011;6444;49.742;6.114;2022-10-16T07:04:31;7.80;;;3.25;;
12760;SDS011;6444;49.742;6.114;2022-10-16T07:06:59;5.37;;;3.17;;
12760;SDS011;6444;49.742;6.114;2022-10-16T07:09:24;4.40;;;3.72;;
12760;SDS011;6444;49.742;6.114;2022-10-16T07:11:51;7.28;;;5.37;;
12760;SDS011;6444;49.742;6.114;2022-10-16T07:14:18;8.05;;;7.25;;
12760;SDS011;6444;49.742;6.114;2022-10-16T07:16:44;10.10;;;5.43;;
12760;SDS011;6444;49.742;6.114;2022-10-16T07:19:11;5.70;;;5.10;;
12760;SDS011;6444;49.742;6.114;2022-10-16T07:21:37;8.02;;;4.30;;
12760;SDS011;6444;49.742;6.114;2022-10-16T07:24:10;4.80;;;4.22;;
12760;SDS011;6444;49.742;6.114;2022-10-16T07:26:34;6.53;;;4.40;;
12760;SDS011;6444;49.742;6.114;2022-10-16T07:29:00;7.10;;;6.05;;
12760;SDS011;6444;49.742;6.114;2022-10-16T07:31:27;6.65;;;5.70;;
12760;SDS011;6444;49.742;6.114;2022-10-16T07:33:53;5.70;;;5.20;;
12760;SDS011;6444;49.742;6.114;2022-10-16T07:36:20;7.60;;;6.80;;
12760;SDS011;6444;49.742;6.114;2022-10-16T07:38:47;7.22;;;5.03;;
12760;SDS011;6444;49.742;6.114;2022-10-16T07:41:14;9.18;;;5.78;;
12760;SDS011;6444;49.742;6.114;2022-10-16T07:43:44;10.50;;;8.02;;
12760;SDS011;6444;49.742;6.114;2022-10-16T07:46:07;7.10;;;5.28;;
12760;SDS011;6444;49.742;6.114;2022-10-16T07:48:34;5.78;;;5.18;;
12760;SDS011;6444;49.742;6.114;2022-10-16T07:51:01;6.82;;;4.70;;
12760;SDS011;6444;49.742;6.114;2022-10-16T07:53:27;5.35;;;4.78;;
12760;SDS011;6444;49.742;6.114;2022-10-16T07:55:59;6.62;;;4.90;;
12760;SDS011;6444;49.742;6.114;2022-10-16T07:58:30;5.93;;;4.75;;
12760;SDS011;6444;49.742;6.114;2022-10-16T08:00:57;5.32;;;4.32;;
12760;SDS011;6444;49.742;6.114;2022-10-16T08:03:23;5.50;;;4.82;;
12760;SDS011;6444;49.742;6.114;2022-10-16T08:05:49;5.00;;;4.50;;
12760;SDS011;6444;49.742;6.114;2022-10-16T08:08:17;4.97;;;4.45;;
12760;SDS011;6444;49.742;6.114;2022-10-16T08:10:43;5.60;;;3.75;;
12760;SDS011;6444;49.742;6.114;2022-10-16T08:13:09;6.68;;;5.37;;
12760;SDS011;6444;49.742;6.114;2022-10-16T08:15:36;6.32;;;4.80;;
12760;SDS011;6444;49.742;6.114;2022-10-16T08:18:03;6.30;;;4.03;;
12760;SDS011;6444;49.742;6.114;2022-10-16T08:20:30;3.60;;;3.30;;
12760;SDS011;6444;49.742;6.114;2022-10-16T08:22:57;4.25;;;3.35;;
12760;SDS011;6444;49.742;6.114;2022-10-16T08:25:23;5.45;;;3.20;;
12760;SDS011;6444;49.742;6.114;2022-10-16T08:27:50;5.47;;;3.83;;
12760;SDS011;6444;49.742;6.114;2022-10-16T08:30:17;4.75;;;3.72;;
12760;SDS011;6444;49.742;6.114;2022-10-16T08:32:44;7.53;;;6.72;;
12760;SDS011;6444;49.742;6.114;2022-10-16T08:35:11;5.25;;;3.53;;
12760;SDS011;6444;49.742;6.114;2022-10-16T08:37:37;10.63;;;9.05;;
12760;SDS011;6444;49.742;6.114;2022-10-16T08:40:04;5.32;;;4.55;;
12760;SDS011;6444;49.742;6.114;2022-10-16T08:42:34;3.80;;;2.80;;
12760;SDS011;6444;49.742;6.114;2022-10-16T08:50:13;2.33;;;1.87;;
12760;SDS011;6444;49.742;6.114;2022-10-16T08:52:41;4.07;;;2.10;;
12760;SDS011;6444;49.742;6.114;2022-10-16T08:57:55;3.28;;;2.60;;
12760;SDS011;6444;49.742;6.114;2022-10-16T09:00:22;7.03;;;4.97;;
12760;SDS011;6444;49.742;6.114;2022-10-16T09:02:55;6.40;;;4.80;;
12760;SDS011;6444;49.742;6.114;2022-10-16T09:05:29;5.28;;;4.78;;
12760;SDS011;6444;49.742;6.114;2022-10-16T09:08:15;11.18;;;8.80;;
12760;SDS011;6444;49.742;6.114;2022-10-16T09:13:26;2.65;;;2.45;;
12760;SDS011;6444;49.742;6.114;2022-10-16T09:16:12;1.67;;;1.58;;
12760;SDS011;6444;49.742;6.114;2022-10-16T09:18:43;1.67;;;1.35;;
12760;SDS011;6444;49.742;6.114;2022-10-16T09:21:14;1.85;;;1.23;;
12760;SDS011;6444;49.742;6.114;2022-10-16T09:23:40;2.17;;;1.40;;
12760;SDS011;6444;49.742;6.114;2022-10-16T09:26:09;2.67;;;2.10;;
12760;SDS011;6444;49.742;6.114;2022-10-16T09:28:34;2.37;;;1.60;;
12760;SDS011;6444;49.742;6.114;2022-10-16T09:31:00;4.35;;;1.80;;
12760;SDS011;6444;49.742;6.114;2022-10-16T09:33:33;1.23;;;1.10;;
12760;SDS011;6444;49.742;6.114;2022-10-16T09:35:57;6.82;;;3.20;;
12760;SDS011;6444;49.742;6.114;2022-10-16T09:40:56;5.00;;;4.32;;
12760;SDS011;6444;49.742;6.114;2022-10-16T09:46:09;1.50;;;1.40;;
12760;SDS011;6444;49.742;6.114;2022-10-16T09:48:33;1.83;;;1.50;;
12760;SDS011;6444;49.742;6.114;2022-10-16T09:51:01;2.17;;;1.58;;
12760;SDS011;6444;49.742;6.114;2022-10-16T09:53:25;1.85;;;1.10;;
12760;SDS011;6444;49.742;6.114;2022-10-16T09:55:52;2.62;;;1.75;;
12760;SDS011;6444;49.742;6.114;2022-10-16T09:58:18;1.30;;;1.20;;
12760;SDS011;6444;49.742;6.114;2022-10-16T10:00:51;3.33;;;1.45;;
12760;SDS011;6444;49.742;6.114;2022-10-16T10:03:24;1.62;;;0.80;;
12760;SDS011;6444;49.742;6.114;2022-10-16T10:05:47;1.50;;;1.40;;
12760;SDS011;6444;49.742;6.114;2022-10-16T10:08:14;1.10;;;1.00;;
12760;SDS011;6444;49.742;6.114;2022-10-16T10:10:41;1.30;;;0.70;;
12760;SDS011;6444;49.742;6.114;2022-10-16T10:13:20;1.40;;;1.10;;
12760;SDS011;6444;49.742;6.114;2022-10-16T10:15:46;2.08;;;0.80;;
12760;SDS011;6444;49.742;6.114;2022-10-16T10:18:17;0.75;;;0.70;;
12760;SDS011;6444;49.742;6.114;2022-10-16T10:20:43;3.40;;;3.08;;
12760;SDS011;6444;49.742;6.114;2022-10-16T10:23:25;3.42;;;1.02;;
12760;SDS011;6444;49.742;6.114;2022-10-16T10:28:35;1.27;;;0.80;;
12760;SDS011;6444;49.742;6.114;2022-10-16T10:31:25;4.57;;;1.75;;
12760;SDS011;6444;49.742;6.114;2022-10-16T10:37:15;1.27;;;0.90;;
12760;SDS011;6444;49.742;6.114;2022-10-16T10:39:39;1.17;;;0.80;;
12760;SDS011;6444;49.742;6.114;2022-10-16T10:50:10;2.35;;;1.73;;
12760;SDS011;6444;49.742;6.114;2022-10-16T10:52:53;1.60;;;1.42;;
12760;SDS011;6444;49.742;6.114;2022-10-16T10:55:27;0.93;;;0.80;;
12760;SDS011;6444;49.742;6.114;2022-10-16T11:06:09;3.85;;;1.48;;
12760;SDS011;6444;49.742;6.114;2022-10-16T11:08:36;0.95;;;0.80;;
12760;SDS011;6444;49.742;6.114;2022-10-16T11:11:02;2.83;;;1.95;;
12760;SDS011;6444;49.742;6.114;2022-10-16T11:13:32;6.82;;;3.47;;
12760;SDS011;6444;49.742;6.114;2022-10-16T11:15:58;2.25;;;1.23;;
12760;SDS011;6444;49.742;6.114;2022-10-16T11:18:30;4.03;;;2.83;;
12760;SDS011;6444;49.742;6.114;2022-10-16T11:20:56;2.58;;;1.83;;
12760;SDS011;6444;49.742;6.114;2022-10-16T11:23:28;1.90;;;1.02;;
12760;SDS011;6444;49.742;6.114;2022-10-16T11:25:57;1.35;;;1.23;;
12760;SDS011;6444;49.742;6.114;2022-10-16T11:28:31;3.00;;;1.10;;
12760;SDS011;6444;49.742;6.114;2022-10-16T11:31:00;3.30;;;1.17;;
12760;SDS011;6444;49.742;6.114;2022-10-16T11:33:45;1.45;;;1.15;;
12760;SDS011;6444;49.742;6.114;2022-10-16T11:47:40;1.52;;;1.42;;
12760;SDS011;6444;49.742;6.114;2022-10-16T11:49:36;3.47;;;1.70;;
12760;SDS011;6444;49.742;6.114;2022-10-16T11:54:52;2.20;;;2.00;;
12760;SDS011;6444;49.742;6.114;2022-10-16T11:57:26;2.78;;;1.52;;
12760;SDS011;6444;49.742;6.114;2022-10-16T12:00:04;5.20;;;1.92;;
12760;SDS011;6444;49.742;6.114;2022-10-16T12:02:33;3.95;;;3.55;;
12760;SDS011;6444;49.742;6.114;2022-10-16T12:10:34;4.45;;;4.05;;
12760;SDS011;6444;49.742;6.114;2022-10-16T12:13:00;4.53;;;3.40;;
12760;SDS011;6444;49.742;6.114;2022-10-16T12:15:28;2.53;;;2.33;;
12760;SDS011;6444;49.742;6.114;2022-10-16T12:17:55;3.92;;;2.80;;
12760;SDS011;6444;49.742;6.114;2022-10-16T12:22:48;3.60;;;3.00;;
12760;SDS011;6444;49.742;6.114;2022-10-16T12:25:33;3.83;;;3.00;;
12760;SDS011;6444;49.742;6.114;2022-10-16T12:28:03;3.12;;;2.72;;
12760;SDS011;6444;49.742;6.114;2022-10-16T12:30:32;4.30;;;3.55;;
12760;SDS011;6444;49.742;6.114;2022-10-16T12:33:00;4.37;;;3.72;;
12760;SDS011;6444;49.742;6.114;2022-10-16T12:35:26;3.20;;;2.87;;
12760;SDS011;6444;49.742;6.114;2022-10-16T12:37:52;3.12;;;2.60;;
12760;SDS011;6444;49.742;6.114;2022-10-16T12:42:48;2.58;;;2.37;;
12760;SDS011;6444;49.742;6.114;2022-10-16T12:45:24;2.58;;;2.37;;
12760;SDS011;6444;49.742;6.114;2022-10-16T12:47:51;2.78;;;2.20;;
12760;SDS011;6444;49.742;6.114;2022-10-16T12:50:24;2.50;;;2.20;;
12760;SDS011;6444;49.742;6.114;2022-10-16T12:52:49;3.17;;;2.62;;
12760;SDS011;6444;49.742;6.114;2022-10-16T12:55:18;3.87;;;2.47;;
12760;SDS011;6444;49.742;6.114;2022-10-16T12:58:02;6.53;;;2.50;;
12760;SDS011;6444;49.742;6.114;2022-10-16T13:00:34;2.58;;;1.90;;
12760;SDS011;6444;49.742;6.114;2022-10-16T13:06:02;3.80;;;2.03;;
12760;SDS011;6444;49.742;6.114;2022-10-16T13:08:44;3.17;;;2.40;;
12760;SDS011;6444;49.742;6.114;2022-10-16T13:13:49;2.20;;;2.00;;
12760;SDS011;6444;49.742;6.114;2022-10-16T13:16:34;2.70;;;2.50;;
12760;SDS011;6444;49.742;6.114;2022-10-16T13:19:06;4.85;;;2.42;;
12760;SDS011;6444;49.742;6.114;2022-10-16T13:21:30;4.65;;;2.30;;
12760;SDS011;6444;49.742;6.114;2022-10-16T13:29:04;2.03;;;1.83;;
12760;SDS011;6444;49.742;6.114;2022-10-16T13:31:31;3.90;;;2.00;;
12760;SDS011;6444;49.742;6.114;2022-10-16T13:33:58;3.15;;;2.22;;
12760;SDS011;6444;49.742;6.114;2022-10-16T13:36:29;3.85;;;2.50;;
12760;SDS011;6444;49.742;6.114;2022-10-16T13:39:29;5.78;;;2.30;;
12760;SDS011;6444;49.742;6.114;2022-10-16T13:41:32;2.15;;;1.95;;
12760;SDS011;6444;49.742;6.114;2022-10-16T13:43:59;2.58;;;2.35;;
12760;SDS011;6444;49.742;6.114;2022-10-16T13:46:26;2.50;;;2.10;;
12760;SDS011;6444;49.742;6.114;2022-10-16T13:48:56;5.62;;;2.33;;
12760;SDS011;6444;49.742;6.114;2022-10-16T13:51:25;2.85;;;2.05;;
12760;SDS011;6444;49.742;6.114;2022-10-16T13:53:51;4.28;;;1.90;;
12760;SDS011;6444;49.742;6.114;2022-10-16T13:56:19;4.37;;;2.50;;
12760;SDS011;6444;49.742;6.114;2022-10-16T13:58:45;4.15;;;2.45;;
12760;SDS011;6444;49.742;6.114;2022-10-16T14:01:16;3.53;;;2.75;;
12760;SDS011;6444;49.742;6.114;2022-10-16T14:03:38;11.15;;;7.07;;
12760;SDS011;6444;49.742;6.114;2022-10-16T14:06:05;4.50;;;3.08;;
12760;SDS011;6444;49.742;6.114;2022-10-16T14:08:32;3.58;;;3.10;;
12760;SDS011;6444;49.742;6.114;2022-10-16T14:10:59;4.72;;;2.97;;
12760;SDS011;6444;49.742;6.114;2022-10-16T14:13:29;4.30;;;3.15;;
12760;SDS011;6444;49.742;6.114;2022-10-16T14:15:55;3.85;;;2.97;;
12760;SDS011;6444;49.742;6.114;2022-10-16T14:18:22;5.87;;;3.50;;
12760;SDS011;6444;49.742;6.114;2022-10-16T14:20:48;3.90;;;3.50;;
12760;SDS011;6444;49.742;6.114;2022-10-16T14:23:22;3.50;;;3.20;;
12760;SDS011;6444;49.742;6.114;2022-10-16T14:25:47;5.75;;;5.07;;
12760;SDS011;6444;49.742;6.114;2022-10-16T14:33:34;3.60;;;3.30;;
12760;SDS011;6444;49.742;6.114;2022-10-16T14:38:30;4.37;;;3.70;;
12760;SDS011;6444;49.742;6.114;2022-10-16T14:40:57;3.67;;;3.37;;
12760;SDS011;6444;49.742;6.114;2022-10-16T14:43:26;3.60;;;3.30;;
12760;SDS011;6444;49.742;6.114;2022-10-16T14:45:53;6.28;;;3.70;;
12760;SDS011;6444;49.742;6.114;2022-10-16T14:48:19;4.00;;;3.30;;
12760;SDS011;6444;49.742;6.114;2022-10-16T14:50:45;4.72;;;4.20;;
12760;SDS011;6444;49.742;6.114;2022-10-16T14:53:12;4.40;;;4.00;;
12760;SDS011;6444;49.742;6.114;2022-10-16T14:55:39;4.50;;;3.42;;
12760;SDS011;6444;49.742;6.114;2022-10-16T14:58:05;5.12;;;3.53;;
12760;SDS011;6444;49.742;6.114;2022-10-16T15:00:32;9.50;;;3.95;;
12760;SDS011;6444;49.742;6.114;2022-10-16T15:02:58;8.67;;;7.83;;
12760;SDS011;6444;49.742;6.114;2022-10-16T15:05:26;14.52;;;11.82;;
12760;SDS011;6444;49.742;6.114;2022-10-16T15:07:52;8.60;;;5.10;;
12760;SDS011;6444;49.742;6.114;2022-10-16T15:10:19;6.65;;;4.85;;
12760;SDS011;6444;49.742;6.114;2022-10-16T15:12:45;3.90;;;3.30;;
12760;SDS011;6444;49.742;6.114;2022-10-16T15:17:54;3.40;;;2.90;;
12760;SDS011;6444;49.742;6.114;2022-10-16T15:20:24;6.43;;;3.42;;
12760;SDS011;6444;49.742;6.114;2022-10-16T15:22:50;9.63;;;3.65;;
12760;SDS011;6444;49.742;6.114;2022-10-16T15:25:25;5.97;;;3.28;;
12760;SDS011;6444;49.742;6.114;2022-10-16T15:27:52;5.40;;;3.20;;
12760;SDS011;6444;49.742;6.114;2022-10-16T15:30:18;3.40;;;2.95;;
12760;SDS011;6444;49.742;6.114;2022-10-16T15:32:45;4.07;;;3.20;;
12760;SDS011;6444;49.742;6.114;2022-10-16T15:35:11;5.57;;;3.00;;
12760;SDS011;6444;49.742;6.114;2022-10-16T15:37:38;5.20;;;3.03;;
12760;SDS011;6444;49.742;6.114;2022-10-16T15:40:05;5.37;;;3.37;;
12760;SDS011;6444;49.742;6.114;2022-10-16T15:42:31;6.00;;;3.03;;
12760;SDS011;6444;49.742;6.114;2022-10-16T15:44:58;4.53;;;3.28;;
12760;SDS011;6444;49.742;6.114;2022-10-16T15:47:25;4.87;;;3.77;;
12760;SDS011;6444;49.742;6.114;2022-10-16T15:49:51;6.15;;;3.37;;
12760;SDS011;6444;49.742;6.114;2022-10-16T15:52:18;7.20;;;3.47;;
12760;SDS011;6444;49.742;6.114;2022-10-16T15:54:45;5.00;;;3.97;;
12760;SDS011;6444;49.742;6.114;2022-10-16T15:57:11;5.85;;;3.03;;
12760;SDS011;6444;49.742;6.114;2022-10-16T15:59:39;4.22;;;2.97;;
12760;SDS011;6444;49.742;6.114;2022-10-16T16:02:05;4.85;;;3.28;;
12760;SDS011;6444;49.742;6.114;2022-10-16T16:04:32;5.43;;;3.80;;
12760;SDS011;6444;49.742;6.114;2022-10-16T16:06:58;8.52;;;3.87;;
12760;SDS011;6444;49.742;6.114;2022-10-16T16:09:26;3.70;;;3.20;;
12760;SDS011;6444;49.742;6.114;2022-10-16T16:11:52;4.30;;;3.30;;
12760;SDS011;6444;49.742;6.114;2022-10-16T16:14:19;6.15;;;3.80;;
12760;SDS011;6444;49.742;6.114;2022-10-16T16:16:46;7.33;;;4.33;;
12760;SDS011;6444;49.742;6.114;2022-10-16T16:19:12;6.22;;;3.97;;
12760;SDS011;6444;49.742;6.114;2022-10-16T16:21:39;6.57;;;3.83;;
12760;SDS011;6444;49.742;6.114;2022-10-16T16:24:06;7.45;;;3.75;;
12760;SDS011;6444;49.742;6.114;2022-10-16T16:26:32;7.37;;;3.75;;
12760;SDS011;6444;49.742;6.114;2022-10-16T16:28:59;5.10;;;4.57;;
12760;SDS011;6444;49.742;6.114;2022-10-16T16:31:29;7.07;;;4.03;;
12760;SDS011;6444;49.742;6.114;2022-10-16T16:33:55;6.65;;;4.20;;
12760;SDS011;6444;49.742;6.114;2022-10-16T16:36:22;8.75;;;4.32;;
12760;SDS011;6444;49.742;6.114;2022-10-16T16:38:48;39.43;;;32.67;;
12760;SDS011;6444;49.742;6.114;2022-10-16T16:41:18;16.95;;;7.80;;